Batesville, Texas
Current Conditions -  °F | °C
As of 8:55 PM on Sunday 23 Nov 2014 (Local Time) from KUVA Reporting Station
Clear Clear  
Wind Chill: 63°   Ceiling: Unl
Heat Index: 63°   Visibility: 10mi
Dew Point: 42°   Wind: 6mph
Humidity: 47%   Direction: 320°NW
Pressure: 29.75"   Gusts: NA
Location:  28.95°N, 99.62°W
Report Text: KUVA 240255Z AUTO 32005KT 10SM CLR 17/06 A2975 RMK AO2 T01710056
Loading
Personal Weather Stations






























Interactive Weather Map New forecast layout! Learn more

10-Day Weather Forecast

Advertisements
Track Severe Weather on mobile